sensor_id;sensor_type;location;lat;lon;timestamp;temperature;humidity
23160;DHT22;11748;50.844;4.396;2023-02-12T00:01:29;10.00;99.90
23160;DHT22;11748;50.844;4.396;2023-02-12T00:03:56;9.80;99.90
23160;DHT22;11748;50.844;4.396;2023-02-12T00:06:22;9.80;99.90
23160;DHT22;11748;50.844;4.396;2023-02-12T00:08:49;9.90;99.90
23160;DHT22;11748;50.844;4.396;2023-02-12T00:11:18;9.90;99.90
23160;DHT22;11748;50.844;4.396;2023-02-12T00:13:44;9.80;99.90
23160;DHT22;11748;50.844;4.396;2023-02-12T00:16:13;9.70;99.90
23160;DHT22;11748;50.844;4.396;2023-02-12T00:18:39;9.80;99.90
23160;DHT22;11748;50.844;4.396;2023-02-12T00:21:05;9.80;99.90
23160;DHT22;11748;50.844;4.396;2023-02-12T00:23:33;9.90;99.90
23160;DHT22;11748;50.844;4.396;2023-02-12T00:25:59;9.90;99.90
23160;DHT22;11748;50.844;4.396;2023-02-12T00:28:25;10.00;99.90
23160;DHT22;11748;50.844;4.396;2023-02-12T00:30:51;10.10;99.90
23160;DHT22;11748;50.844;4.396;2023-02-12T00:33:17;10.10;99.90
23160;DHT22;11748;50.844;4.396;2023-02-12T00:35:43;10.20;99.90
23160;DHT22;11748;50.844;4.396;2023-02-12T00:38:09;10.40;99.90
23160;DHT22;11748;50.844;4.396;2023-02-12T00:40:35;10.50;99.90
23160;DHT22;11748;50.844;4.396;2023-02-12T00:43:00;10.70;99.90
23160;DHT22;11748;50.844;4.396;2023-02-12T00:45:26;10.60;99.90
23160;DHT22;11748;50.844;4.396;2023-02-12T00:47:52;10.30;99.90
23160;DHT22;11748;50.844;4.396;2023-02-12T00:50:17;10.20;99.90
23160;DHT22;11748;50.844;4.396;2023-02-12T00:52:43;10.30;99.90
23160;DHT22;11748;50.844;4.396;2023-02-12T00:55:09;10.50;99.90
23160;DHT22;11748;50.844;4.396;2023-02-12T00:57:34;10.20;99.90
23160;DHT22;11748;50.844;4.396;2023-02-12T01:00:00;10.00;99.90
23160;DHT22;11748;50.844;4.396;2023-02-12T01:02:26;9.80;99.90
23160;DHT22;11748;50.844;4.396;2023-02-12T01:04:52;9.70;99.90
23160;DHT22;11748;50.844;4.396;2023-02-12T01:07:17;9.70;99.90
23160;DHT22;11748;50.844;4.396;2023-02-12T01:09:43;9.80;99.90
23160;DHT22;11748;50.844;4.396;2023-02-12T01:12:09;9.90;99.90
23160;DHT22;11748;50.844;4.396;2023-02-12T01:14:34;9.90;99.90
23160;DHT22;11748;50.844;4.396;2023-02-12T01:17:00;10.20;99.90
23160;DHT22;11748;50.844;4.396;2023-02-12T01:19:26;10.30;99.90
23160;DHT22;11748;50.844;4.396;2023-02-12T01:21:52;10.50;99.90
23160;DHT22;11748;50.844;4.396;2023-02-12T01:24:17;10.60;99.90
23160;DHT22;11748;50.844;4.396;2023-02-12T01:26:43;10.60;99.90
23160;DHT22;11748;50.844;4.396;2023-02-12T01:29:09;10.60;99.90
23160;DHT22;11748;50.844;4.396;2023-02-12T01:31:37;10.70;99.90
23160;DHT22;11748;50.844;4.396;2023-02-12T01:34:05;10.70;99.90
23160;DHT22;11748;50.844;4.396;2023-02-12T01:36:31;10.80;99.90
23160;DHT22;11748;50.844;4.396;2023-02-12T01:38:57;10.70;99.90
23160;DHT22;11748;50.844;4.396;2023-02-12T01:41:30;10.40;99.90
23160;DHT22;11748;50.844;4.396;2023-02-12T01:44:16;10.40;99.90
23160;DHT22;11748;50.844;4.396;2023-02-12T01:46:44;10.40;99.90
23160;DHT22;11748;50.844;4.396;2023-02-12T01:49:32;10.40;99.90
23160;DHT22;11748;50.844;4.396;2023-02-12T01:52:16;10.20;99.90
23160;DHT22;11748;50.844;4.396;2023-02-12T01:54:44;10.00;99.90
23160;DHT22;11748;50.844;4.396;2023-02-12T01:57:11;9.90;99.90
23160;DHT22;11748;50.844;4.396;2023-02-12T01:59:39;10.10;99.90
23160;DHT22;11748;50.844;4.396;2023-02-12T02:02:06;10.30;99.90
23160;DHT22;11748;50.844;4.396;2023-02-12T02:04:37;10.20;99.90
23160;DHT22;11748;50.844;4.396;2023-02-12T02:07:05;10.10;99.90
23160;DHT22;11748;50.844;4.396;2023-02-12T02:09:34;10.00;99.90
23160;DHT22;11748;50.844;4.396;2023-02-12T02:12:00;10.00;99.90
23160;DHT22;11748;50.844;4.396;2023-02-12T02:14:46;10.00;99.90
23160;DHT22;11748;50.844;4.396;2023-02-12T02:31:43;10.20;99.90
23160;DHT22;11748;50.844;4.396;2023-02-12T02:34:38;10.10;99.90
23160;DHT22;11748;50.844;4.396;2023-02-12T02:39:49;10.30;99.90
23160;DHT22;11748;50.844;4.396;2023-02-12T02:44:54;10.30;99.90
23160;DHT22;11748;50.844;4.396;2023-02-12T02:47:34;10.20;99.90
23160;DHT22;11748;50.844;4.396;2023-02-12T02:50:07;10.20;99.90
23160;DHT22;11748;50.844;4.396;2023-02-12T02:52:51;10.20;99.90
23160;DHT22;11748;50.844;4.396;2023-02-12T02:55:20;10.20;99.90
23160;DHT22;11748;50.844;4.396;2023-02-12T02:57:59;10.30;99.90
23160;DHT22;11748;50.844;4.396;2023-02-12T03:00:38;10.30;99.90
23160;DHT22;11748;50.844;4.396;2023-02-12T03:03:10;10.50;99.90
23160;DHT22;11748;50.844;4.396;2023-02-12T03:05:42;10.50;99.90
23160;DHT22;11748;50.844;4.396;2023-02-12T03:08:40;10.40;99.90
23160;DHT22;11748;50.844;4.396;2023-02-12T03:11:12;10.50;99.90
23160;DHT22;11748;50.844;4.396;2023-02-12T03:13:54;10.50;99.90
23160;DHT22;11748;50.844;4.396;2023-02-12T03:16:26;10.60;99.90
23160;DHT22;11748;50.844;4.396;2023-02-12T03:21:47;10.80;99.90
23160;DHT22;11748;50.844;4.396;2023-02-12T03:24:20;10.70;99.90
23160;DHT22;11748;50.844;4.396;2023-02-12T03:26:55;10.70;99.90
23160;DHT22;11748;50.844;4.396;2023-02-12T03:29:23;10.70;99.90
23160;DHT22;11748;50.844;4.396;2023-02-12T03:31:58;10.40;99.90
23160;DHT22;11748;50.844;4.396;2023-02-12T03:39:55;10.60;99.90
23160;DHT22;11748;50.844;4.396;2023-02-12T03:42:36;10.60;99.90
23160;DHT22;11748;50.844;4.396;2023-02-12T03:45:07;10.70;99.90
23160;DHT22;11748;50.844;4.396;2023-02-12T03:53:07;10.30;99.90
23160;DHT22;11748;50.844;4.396;2023-02-12T03:55:35;10.10;99.90
23160;DHT22;11748;50.844;4.396;2023-02-12T03:58:07;10.20;99.90
23160;DHT22;11748;50.844;4.396;2023-02-12T04:00:36;10.20;99.90
23160;DHT22;11748;50.844;4.396;2023-02-12T04:03:03;10.00;99.90
23160;DHT22;11748;50.844;4.396;2023-02-12T04:05:29;10.00;99.90
23160;DHT22;11748;50.844;4.396;2023-02-12T04:07:57;10.00;99.90
23160;DHT22;11748;50.844;4.396;2023-02-12T04:10:41;10.00;99.90
23160;DHT22;11748;50.844;4.396;2023-02-12T04:18:41;10.30;99.90
23160;DHT22;11748;50.844;4.396;2023-02-12T04:21:12;10.40;99.90
23160;DHT22;11748;50.844;4.396;2023-02-12T04:23:54;10.40;99.90
23160;DHT22;11748;50.844;4.396;2023-02-12T04:26:36;10.10;99.90
23160;DHT22;11748;50.844;4.396;2023-02-12T04:32:04;9.90;99.90
23160;DHT22;11748;50.844;4.396;2023-02-12T04:35:18;9.90;99.90
23160;DHT22;11748;50.844;4.396;2023-02-12T04:39:51;10.20;99.90
23160;DHT22;11748;50.844;4.396;2023-02-12T04:42:17;10.10;99.90
23160;DHT22;11748;50.844;4.396;2023-02-12T04:44:43;10.20;99.90
23160;DHT22;11748;50.844;4.396;2023-02-12T04:47:14;10.30;99.90
23160;DHT22;11748;50.844;4.396;2023-02-12T04:49:40;10.40;99.90
23160;DHT22;11748;50.844;4.396;2023-02-12T04:52:07;10.50;99.90
23160;DHT22;11748;50.844;4.396;2023-02-12T04:54:33;10.60;99.90
23160;DHT22;11748;50.844;4.396;2023-02-12T04:56:59;10.60;99.90
23160;DHT22;11748;50.844;4.396;2023-02-12T04:59:25;10.40;99.90
23160;DHT22;11748;50.844;4.396;2023-02-12T05:01:51;10.20;99.90
23160;DHT22;11748;50.844;4.396;2023-02-12T05:04:17;10.00;99.90
23160;DHT22;11748;50.844;4.396;2023-02-12T05:06:44;10.00;99.90
23160;DHT22;11748;50.844;4.396;2023-02-12T05:09:14;9.90;99.90
23160;DHT22;11748;50.844;4.396;2023-02-12T05:11:40;9.90;99.90
23160;DHT22;11748;50.844;4.396;2023-02-12T05:14:06;10.10;99.90
23160;DHT22;11748;50.844;4.396;2023-02-12T05:16:32;10.30;99.90
23160;DHT22;11748;50.844;4.396;2023-02-12T05:18:58;10.40;99.90
23160;DHT22;11748;50.844;4.396;2023-02-12T05:21:23;10.20;99.90
23160;DHT22;11748;50.844;4.396;2023-02-12T05:23:49;10.10;99.90
23160;DHT22;11748;50.844;4.396;2023-02-12T05:26:18;10.30;99.90
23160;DHT22;11748;50.844;4.396;2023-02-12T05:28:44;10.40;99.90
23160;DHT22;11748;50.844;4.396;2023-02-12T05:31:13;10.40;99.90
23160;DHT22;11748;50.844;4.396;2023-02-12T05:33:44;10.30;99.90
23160;DHT22;11748;50.844;4.396;2023-02-12T05:36:12;10.10;99.90
23160;DHT22;11748;50.844;4.396;2023-02-12T05:38:39;9.90;99.90
23160;DHT22;11748;50.844;4.396;2023-02-12T05:41:12;9.80;99.90
23160;DHT22;11748;50.844;4.396;2023-02-12T05:43:39;9.80;99.90
23160;DHT22;11748;50.844;4.396;2023-02-12T05:46:06;9.80;99.90
23160;DHT22;11748;50.844;4.396;2023-02-12T05:48:32;10.00;99.90
23160;DHT22;11748;50.844;4.396;2023-02-12T05:51:10;10.10;99.90
23160;DHT22;11748;50.844;4.396;2023-02-12T05:53:38;10.10;99.90
23160;DHT22;11748;50.844;4.396;2023-02-12T05:58:47;10.10;99.90
23160;DHT22;11748;50.844;4.396;2023-02-12T06:01:17;10.10;99.90
23160;DHT22;11748;50.844;4.396;2023-02-12T06:03:43;10.00;99.90
23160;DHT22;11748;50.844;4.396;2023-02-12T06:06:09;10.00;99.90
23160;DHT22;11748;50.844;4.396;2023-02-12T06:08:36;9.90;99.90
23160;DHT22;11748;50.844;4.396;2023-02-12T06:11:04;9.90;99.90
23160;DHT22;11748;50.844;4.396;2023-02-12T06:13:31;9.90;99.90
23160;DHT22;11748;50.844;4.396;2023-02-12T06:15:57;9.90;99.90
23160;DHT22;11748;50.844;4.396;2023-02-12T06:18:24;9.80;99.90
23160;DHT22;11748;50.844;4.396;2023-02-12T06:20:50;9.90;99.90
23160;DHT22;11748;50.844;4.396;2023-02-12T06:23:23;9.90;99.90
23160;DHT22;11748;50.844;4.396;2023-02-12T06:25:50;9.90;99.90
23160;DHT22;11748;50.844;4.396;2023-02-12T06:28:19;10.00;99.90
23160;DHT22;11748;50.844;4.396;2023-02-12T06:30:45;10.00;99.90
23160;DHT22;11748;50.844;4.396;2023-02-12T06:33:11;9.90;99.90
23160;DHT22;11748;50.844;4.396;2023-02-12T06:35:37;10.00;99.90
23160;DHT22;11748;50.844;4.396;2023-02-12T06:38:03;10.00;99.90
23160;DHT22;11748;50.844;4.396;2023-02-12T06:40:29;9.90;99.90
23160;DHT22;11748;50.844;4.396;2023-02-12T06:42:55;9.90;99.90
23160;DHT22;11748;50.844;4.396;2023-02-12T06:45:21;9.80;99.90
23160;DHT22;11748;50.844;4.396;2023-02-12T06:47:47;9.80;99.90
23160;DHT22;11748;50.844;4.396;2023-02-12T06:50:14;9.90;99.90
23160;DHT22;11748;50.844;4.396;2023-02-12T06:52:41;9.90;99.90
23160;DHT22;11748;50.844;4.396;2023-02-12T06:55:08;9.80;99.90
23160;DHT22;11748;50.844;4.396;2023-02-12T06:57:34;9.80;99.90
23160;DHT22;11748;50.844;4.396;2023-02-12T06:59:59;9.80;99.90
23160;DHT22;11748;50.844;4.396;2023-02-12T07:02:25;9.80;99.90
23160;DHT22;11748;50.844;4.396;2023-02-12T07:04:51;9.80;99.90
23160;DHT22;11748;50.844;4.396;2023-02-12T07:07:17;9.80;99.90
23160;DHT22;11748;50.844;4.396;2023-02-12T07:09:42;9.80;99.90
23160;DHT22;11748;50.844;4.396;2023-02-12T07:12:08;9.80;99.90
23160;DHT22;11748;50.844;4.396;2023-02-12T07:14:34;9.90;99.90
23160;DHT22;11748;50.844;4.396;2023-02-12T07:16:59;9.90;99.90
23160;DHT22;11748;50.844;4.396;2023-02-12T07:19:29;10.00;99.90
23160;DHT22;11748;50.844;4.396;2023-02-12T07:21:54;10.10;99.90
23160;DHT22;11748;50.844;4.396;2023-02-12T07:24:20;10.30;99.90
23160;DHT22;11748;50.844;4.396;2023-02-12T07:26:46;10.40;99.90
23160;DHT22;11748;50.844;4.396;2023-02-12T07:29:12;10.50;99.90
23160;DHT22;11748;50.844;4.396;2023-02-12T07:31:38;10.60;99.90
23160;DHT22;11748;50.844;4.396;2023-02-12T07:34:04;10.60;99.90
23160;DHT22;11748;50.844;4.396;2023-02-12T07:36:31;10.50;99.90
23160;DHT22;11748;50.844;4.396;2023-02-12T07:38:57;10.30;99.90
23160;DHT22;11748;50.844;4.396;2023-02-12T07:41:32;10.10;99.90
23160;DHT22;11748;50.844;4.396;2023-02-12T07:44:03;10.00;99.90
23160;DHT22;11748;50.844;4.396;2023-02-12T07:46:34;10.00;99.90
23160;DHT22;11748;50.844;4.396;2023-02-12T07:49:02;10.20;99.90
23160;DHT22;11748;50.844;4.396;2023-02-12T07:51:29;10.40;99.90
23160;DHT22;11748;50.844;4.396;2023-02-12T07:53:55;10.30;99.90
23160;DHT22;11748;50.844;4.396;2023-02-12T07:56:23;10.30;99.90
23160;DHT22;11748;50.844;4.396;2023-02-12T07:58:51;10.50;99.90
23160;DHT22;11748;50.844;4.396;2023-02-12T08:01:18;10.60;99.90
23160;DHT22;11748;50.844;4.396;2023-02-12T08:03:45;10.60;99.90
23160;DHT22;11748;50.844;4.396;2023-02-12T08:06:17;10.60;99.90
23160;DHT22;11748;50.844;4.396;2023-02-12T08:08:44;10.60;99.90
23160;DHT22;11748;50.844;4.396;2023-02-12T08:11:12;10.50;99.90
23160;DHT22;11748;50.844;4.396;2023-02-12T08:13:38;10.40;99.90
23160;DHT22;11748;50.844;4.396;2023-02-12T08:16:07;10.60;99.90
23160;DHT22;11748;50.844;4.396;2023-02-12T08:18:33;10.70;99.90
23160;DHT22;11748;50.844;4.396;2023-02-12T08:21:07;10.80;99.90
23160;DHT22;11748;50.844;4.396;2023-02-12T08:23:34;10.60;99.90
23160;DHT22;11748;50.844;4.396;2023-02-12T08:26:07;10.20;99.90
23160;DHT22;11748;50.844;4.396;2023-02-12T08:28:33;10.40;99.90
23160;DHT22;11748;50.844;4.396;2023-02-12T08:31:08;10.50;99.90
23160;DHT22;11748;50.844;4.396;2023-02-12T08:33:34;10.50;99.90
23160;DHT22;11748;50.844;4.396;2023-02-12T08:36:09;10.40;99.90
23160;DHT22;11748;50.844;4.396;2023-02-12T08:38:36;10.40;99.90
23160;DHT22;11748;50.844;4.396;2023-02-12T08:41:07;10.30;99.90
23160;DHT22;11748;50.844;4.396;2023-02-12T08:43:33;10.10;99.90
23160;DHT22;11748;50.844;4.396;2023-02-12T08:46:27;10.30;99.90
23160;DHT22;11748;50.844;4.396;2023-02-12T08:48:56;10.70;99.90
23160;DHT22;11748;50.844;4.396;2023-02-12T08:51:27;10.80;99.90
23160;DHT22;11748;50.844;4.396;2023-02-12T08:53:58;10.90;99.90
23160;DHT22;11748;50.844;4.396;2023-02-12T08:56:24;11.10;99.90
23160;DHT22;11748;50.844;4.396;2023-02-12T08:58:51;11.10;99.90
23160;DHT22;11748;50.844;4.396;2023-02-12T09:01:19;11.00;99.90
23160;DHT22;11748;50.844;4.396;2023-02-12T09:03:45;10.90;99.90
23160;DHT22;11748;50.844;4.396;2023-02-12T09:06:12;11.00;99.90
23160;DHT22;11748;50.844;4.396;2023-02-12T09:08:39;10.90;99.90
23160;DHT22;11748;50.844;4.396;2023-02-12T09:11:06;11.00;99.90
23160;DHT22;11748;50.844;4.396;2023-02-12T09:13:33;11.20;99.90
23160;DHT22;11748;50.844;4.396;2023-02-12T09:16:01;11.20;99.90
23160;DHT22;11748;50.844;4.396;2023-02-12T09:18:28;11.00;99.90
23160;DHT22;11748;50.844;4.396;2023-02-12T09:20:53;10.80;99.90
23160;DHT22;11748;50.844;4.396;2023-02-12T09:23:19;10.60;99.90
23160;DHT22;11748;50.844;4.396;2023-02-12T09:25:45;10.60;99.90
23160;DHT22;11748;50.844;4.396;2023-02-12T09:28:12;10.70;99.90
23160;DHT22;11748;50.844;4.396;2023-02-12T09:30:39;10.60;99.90
23160;DHT22;11748;50.844;4.396;2023-02-12T09:33:06;10.60;99.90
23160;DHT22;11748;50.844;4.396;2023-02-12T09:35:36;10.70;99.90
23160;DHT22;11748;50.844;4.396;2023-02-12T09:38:03;10.70;99.90
23160;DHT22;11748;50.844;4.396;2023-02-12T09:43:15;10.90;99.90
23160;DHT22;11748;50.844;4.396;2023-02-12T09:46:29;11.20;99.90
23160;DHT22;11748;50.844;4.396;2023-02-12T09:49:08;11.50;99.90
23160;DHT22;11748;50.844;4.396;2023-02-12T09:51:37;11.60;99.90
23160;DHT22;11748;50.844;4.396;2023-02-12T09:56:37;11.60;99.90
23160;DHT22;11748;50.844;4.396;2023-02-12T09:59:05;11.60;99.90
23160;DHT22;11748;50.844;4.396;2023-02-12T10:01:32;11.60;99.90
23160;DHT22;11748;50.844;4.396;2023-02-12T10:03:59;11.50;99.90
23160;DHT22;11748;50.844;4.396;2023-02-12T10:06:32;11.50;99.90
23160;DHT22;11748;50.844;4.396;2023-02-12T10:12:38;11.60;99.90
23160;DHT22;11748;50.844;4.396;2023-02-12T10:20:38;11.40;99.90
23160;DHT22;11748;50.844;4.396;2023-02-12T10:29:18;11.40;99.90
23160;DHT22;11748;50.844;4.396;2023-02-12T10:34:45;11.40;99.90
23160;DHT22;11748;50.844;4.396;2023-02-12T10:39:51;11.50;99.90
23160;DHT22;11748;50.844;4.396;2023-02-12T10:42:41;11.50;99.90
23160;DHT22;11748;50.844;4.396;2023-02-12T10:45:16;11.50;99.90
23160;DHT22;11748;50.844;4.396;2023-02-12T10:47:43;11.60;99.90
23160;DHT22;11748;50.844;4.396;2023-02-12T10:50:31;11.60;99.90
23160;DHT22;11748;50.844;4.396;2023-02-12T10:53:00;11.60;99.90
23160;DHT22;11748;50.844;4.396;2023-02-12T10:57:56;11.60;99.90
23160;DHT22;11748;50.844;4.396;2023-02-12T11:05:29;11.70;99.90
23160;DHT22;11748;50.844;4.396;2023-02-12T11:07:55;11.70;99.90
23160;DHT22;11748;50.844;4.396;2023-02-12T11:10:38;11.70;99.90
23160;DHT22;11748;50.844;4.396;2023-02-12T11:13:06;11.80;99.90
23160;DHT22;11748;50.844;4.396;2023-02-12T11:15:47;11.90;99.90
23160;DHT22;11748;50.844;4.396;2023-02-12T11:18:22;11.90;99.90
23160;DHT22;11748;50.844;4.396;2023-02-12T11:21:06;12.00;99.90
23160;DHT22;11748;50.844;4.396;2023-02-12T11:23:37;12.00;99.90
23160;DHT22;11748;50.844;4.396;2023-02-12T11:26:24;12.00;99.90
23160;DHT22;11748;50.844;4.396;2023-02-12T11:34:17;12.10;99.90
23160;DHT22;11748;50.844;4.396;2023-02-12T11:36:52;12.10;99.90
23160;DHT22;11748;50.844;4.396;2023-02-12T11:39:33;12.00;99.90
23160;DHT22;11748;50.844;4.396;2023-02-12T11:42:17;12.10;99.90
23160;DHT22;11748;50.844;4.396;2023-02-12T11:44:53;12.10;99.90
23160;DHT22;11748;50.844;4.396;2023-02-12T11:47:20;12.00;99.90
23160;DHT22;11748;50.844;4.396;2023-02-12T11:52:35;11.90;99.90
23160;DHT22;11748;50.844;4.396;2023-02-12T11:55:05;12.10;99.90
23160;DHT22;11748;50.844;4.396;2023-02-12T11:57:49;12.20;99.90
23160;DHT22;11748;50.844;4.396;2023-02-12T12:03:42;12.20;99.90
23160;DHT22;11748;50.844;4.396;2023-02-12T12:06:21;12.20;99.90
23160;DHT22;11748;50.844;4.396;2023-02-12T12:17:27;12.40;99.90
23160;DHT22;11748;50.844;4.396;2023-02-12T12:20:21;12.40;99.90
23160;DHT22;11748;50.844;4.396;2023-02-12T12:23:14;12.30;99.90
23160;DHT22;11748;50.844;4.396;2023-02-12T12:25:47;12.20;99.90
23160;DHT22;11748;50.844;4.396;2023-02-12T12:28:46;12.20;99.90
23160;DHT22;11748;50.844;4.396;2023-02-12T12:47:31;12.30;99.90
23160;DHT22;11748;50.844;4.396;2023-02-12T12:52:38;12.30;99.90
23160;DHT22;11748;50.844;4.396;2023-02-12T13:12:35;11.90;99.90
23160;DHT22;11748;50.844;4.396;2023-02-12T13:15:05;11.70;99.90
23160;DHT22;11748;50.844;4.396;2023-02-12T13:17:49;11.60;99.90
23160;DHT22;11748;50.844;4.396;2023-02-12T13:20:21;11.70;99.90
23160;DHT22;11748;50.844;4.396;2023-02-12T13:26:24;11.80;99.90
23160;DHT22;11748;50.844;4.396;2023-02-12T13:29:05;11.80;99.90
23160;DHT22;11748;50.844;4.396;2023-02-12T13:31:48;11.70;99.90
23160;DHT22;11748;50.844;4.396;2023-02-12T13:34:16;11.70;99.90
23160;DHT22;11748;50.844;4.396;2023-02-12T13:36:44;11.70;99.90
23160;DHT22;11748;50.844;4.396;2023-02-12T13:39:26;11.80;99.90
23160;DHT22;11748;50.844;4.396;2023-02-12T13:42:14;11.90;99.90
23160;DHT22;11748;50.844;4.396;2023-02-12T13:50:44;11.90;99.90
23160;DHT22;11748;50.844;4.396;2023-02-12T13:53:34;12.00;99.90
23160;DHT22;11748;50.844;4.396;2023-02-12T13:58:50;12.10;99.90
23160;DHT22;11748;50.844;4.396;2023-02-12T14:01:38;12.10;99.90
23160;DHT22;11748;50.844;4.396;2023-02-12T14:07:05;11.80;99.90
23160;DHT22;11748;50.844;4.396;2023-02-12T14:09:35;11.90;99.90
23160;DHT22;11748;50.844;4.396;2023-02-12T14:12:04;12.00;99.90
23160;DHT22;11748;50.844;4.396;2023-02-12T14:14:37;12.10;99.90
23160;DHT22;11748;50.844;4.396;2023-02-12T14:20:15;12.00;99.90
23160;DHT22;11748;50.844;4.396;2023-02-12T14:27:47;11.90;99.90
23160;DHT22;11748;50.844;4.396;2023-02-12T14:30:35;12.00;99.90
23160;DHT22;11748;50.844;4.396;2023-02-12T14:35:40;12.00;99.90
23160;DHT22;11748;50.844;4.396;2023-02-12T14:40:46;12.10;99.90
23160;DHT22;11748;50.844;4.396;2023-02-12T14:43:41;12.10;99.90
23160;DHT22;11748;50.844;4.396;2023-02-12T14:48:54;11.80;99.90
23160;DHT22;11748;50.844;4.396;2023-02-12T14:51:41;12.00;99.90
23160;DHT22;11748;50.844;4.396;2023-02-12T14:54:50;11.90;99.90
23160;DHT22;11748;50.844;4.396;2023-02-12T14:57:39;11.90;99.90
23160;DHT22;11748;50.844;4.396;2023-02-12T15:00:31;11.80;99.90
23160;DHT22;11748;50.844;4.396;2023-02-12T15:08:31;11.60;99.90
23160;DHT22;11748;50.844;4.396;2023-02-12T15:11:12;11.60;99.90
23160;DHT22;11748;50.844;4.396;2023-02-12T15:21:26;11.40;99.90
23160;DHT22;11748;50.844;4.396;2023-02-12T15:24:09;11.40;99.90
23160;DHT22;11748;50.844;4.396;2023-02-12T15:26:39;11.40;99.90
23160;DHT22;11748;50.844;4.396;2023-02-12T15:29:06;11.40;99.90
23160;DHT22;11748;50.844;4.396;2023-02-12T15:31:40;11.40;99.90
23160;DHT22;11748;50.844;4.396;2023-02-12T15:34:06;11.40;99.90
23160;DHT22;11748;50.844;4.396;2023-02-12T15:36:32;11.40;99.90
23160;DHT22;11748;50.844;4.396;2023-02-12T15:39:05;11.30;99.90
23160;DHT22;11748;50.844;4.396;2023-02-12T15:44:00;11.30;99.90
23160;DHT22;11748;50.844;4.396;2023-02-12T15:46:26;11.40;99.90
23160;DHT22;11748;50.844;4.396;2023-02-12T15:48:52;11.40;99.90
23160;DHT22;11748;50.844;4.396;2023-02-12T15:51:36;11.50;99.90
23160;DHT22;11748;50.844;4.396;2023-02-12T15:54:05;11.50;99.90
23160;DHT22;11748;50.844;4.396;2023-02-12T15:56:31;11.50;99.90
23160;DHT22;11748;50.844;4.396;2023-02-12T15:58:59;11.50;99.90
23160;DHT22;11748;50.844;4.396;2023-02-12T16:01:33;11.40;99.90
23160;DHT22;11748;50.844;4.396;2023-02-12T16:04:02;11.50;99.90
23160;DHT22;11748;50.844;4.396;2023-02-12T16:06:31;11.50;99.90
23160;DHT22;11748;50.844;4.396;2023-02-12T16:09:47;11.30;99.90
23160;DHT22;11748;50.844;4.396;2023-02-12T16:11:58;11.40;99.90
23160;DHT22;11748;50.844;4.396;2023-02-12T16:14:25;11.30;99.90
23160;DHT22;11748;50.844;4.396;2023-02-12T16:16:52;11.20;99.90
23160;DHT22;11748;50.844;4.396;2023-02-12T16:19:22;11.10;99.90
23160;DHT22;11748;50.844;4.396;2023-02-12T16:22:08;11.20;99.90
23160;DHT22;11748;50.844;4.396;2023-02-12T16:24:45;11.20;99.90
23160;DHT22;11748;50.844;4.396;2023-02-12T16:29:47;11.30;99.90
23160;DHT22;11748;50.844;4.396;2023-02-12T16:32:39;11.20;99.90
23160;DHT22;11748;50.844;4.396;2023-02-12T16:38:37;11.00;99.90
23160;DHT22;11748;50.844;4.396;2023-02-12T16:40:36;11.00;99.90
23160;DHT22;11748;50.844;4.396;2023-02-12T16:43:20;11.10;99.90
23160;DHT22;11748;50.844;4.396;2023-02-12T16:45:47;11.10;99.90
23160;DHT22;11748;50.844;4.396;2023-02-12T16:48:20;11.10;99.90
23160;DHT22;11748;50.844;4.396;2023-02-12T16:50:57;11.10;99.90
23160;DHT22;11748;50.844;4.396;2023-02-12T16:55:57;11.30;99.90
23160;DHT22;11748;50.844;4.396;2023-02-12T16:58:23;11.10;99.90
23160;DHT22;11748;50.844;4.396;2023-02-12T17:00:51;11.00;99.90
23160;DHT22;11748;50.844;4.396;2023-02-12T17:03:18;11.10;99.90
23160;DHT22;11748;50.844;4.396;2023-02-12T17:05:44;11.10;99.90
23160;DHT22;11748;50.844;4.396;2023-02-12T17:08:15;11.10;99.90
23160;DHT22;11748;50.844;4.396;2023-02-12T17:10:41;11.10;99.90
23160;DHT22;11748;50.844;4.396;2023-02-12T17:13:09;11.10;99.90
23160;DHT22;11748;50.844;4.396;2023-02-12T17:15:56;11.10;99.90
23160;DHT22;11748;50.844;4.396;2023-02-12T17:18:23;11.10;99.90
23160;DHT22;11748;50.844;4.396;2023-02-12T17:21:01;11.10;99.90
23160;DHT22;11748;50.844;4.396;2023-02-12T17:23:28;11.10;99.90
23160;DHT22;11748;50.844;4.396;2023-02-12T17:25:54;11.10;99.90
23160;DHT22;11748;50.844;4.396;2023-02-12T17:28:19;11.10;99.90
23160;DHT22;11748;50.844;4.396;2023-02-12T17:30:47;11.00;99.90
23160;DHT22;11748;50.844;4.396;2023-02-12T17:33:13;11.10;99.90
23160;DHT22;11748;50.844;4.396;2023-02-12T17:35:40;11.00;99.90
23160;DHT22;11748;50.844;4.396;2023-02-12T17:38:07;11.00;99.90
23160;DHT22;11748;50.844;4.396;2023-02-12T17:40:37;11.00;99.90
23160;DHT22;11748;50.844;4.396;2023-02-12T17:43:04;11.10;99.90
23160;DHT22;11748;50.844;4.396;2023-02-12T17:45:31;11.10;99.90
23160;DHT22;11748;50.844;4.396;2023-02-12T17:47:57;11.00;99.90
23160;DHT22;11748;50.844;4.396;2023-02-12T17:50:25;11.00;99.90
23160;DHT22;11748;50.844;4.396;2023-02-12T17:52:51;11.00;99.90
23160;DHT22;11748;50.844;4.396;2023-02-12T17:55:17;11.10;99.90
23160;DHT22;11748;50.844;4.396;2023-02-12T17:57:43;11.10;99.90
23160;DHT22;11748;50.844;4.396;2023-02-12T18:00:10;11.10;99.90
23160;DHT22;11748;50.844;4.396;2023-02-12T18:02:37;11.00;99.90
23160;DHT22;11748;50.844;4.396;2023-02-12T18:05:03;11.00;99.90
23160;DHT22;11748;50.844;4.396;2023-02-12T18:07:32;10.90;99.90
23160;DHT22;11748;50.844;4.396;2023-02-12T18:09:58;11.00;99.90
23160;DHT22;11748;50.844;4.396;2023-02-12T18:12:24;11.00;99.90
23160;DHT22;11748;50.844;4.396;2023-02-12T18:14:55;10.90;99.90
23160;DHT22;11748;50.844;4.396;2023-02-12T18:17:21;10.80;99.90
23160;DHT22;11748;50.844;4.396;2023-02-12T18:19:48;10.80;99.90
23160;DHT22;11748;50.844;4.396;2023-02-12T18:22:13;10.90;99.90
23160;DHT22;11748;50.844;4.396;2023-02-12T18:24:39;10.90;99.90
23160;DHT22;11748;50.844;4.396;2023-02-12T18:27:06;10.90;99.90
23160;DHT22;11748;50.844;4.396;2023-02-12T18:29:31;11.00;99.90
23160;DHT22;11748;50.844;4.396;2023-02-12T18:31:57;11.00;99.90
23160;DHT22;11748;50.844;4.396;2023-02-12T18:34:23;11.00;99.90
23160;DHT22;11748;50.844;4.396;2023-02-12T18:36:49;10.90;99.90
23160;DHT22;11748;50.844;4.396;2023-02-12T18:39:15;11.00;99.90
23160;DHT22;11748;50.844;4.396;2023-02-12T18:41:41;11.00;99.90
23160;DHT22;11748;50.844;4.396;2023-02-12T18:44:06;11.00;99.90
23160;DHT22;11748;50.844;4.396;2023-02-12T18:46:32;11.00;99.90
23160;DHT22;11748;50.844;4.396;2023-02-12T18:48:58;11.00;99.90
23160;DHT22;11748;50.844;4.396;2023-02-12T18:51:27;10.90;99.90
23160;DHT22;11748;50.844;4.396;2023-02-12T18:53:59;10.90;99.90
23160;DHT22;11748;50.844;4.396;2023-02-12T18:56:27;10.90;99.90
23160;DHT22;11748;50.844;4.396;2023-02-12T18:58:54;11.00;99.90
23160;DHT22;11748;50.844;4.396;2023-02-12T19:01:21;11.00;99.90
23160;DHT22;11748;50.844;4.396;2023-02-12T19:03:47;11.00;99.90
23160;DHT22;11748;50.844;4.396;2023-02-12T19:06:14;11.00;99.90